MDT,Max TemperatureF,Mean TemperatureF,Min TemperatureF,Max Dew PointF,MeanDew PointF,Min DewpointF,Max Humidity, Mean Humidity, Min Humidity, Max Sea Level PressureIn, Mean Sea Level PressureIn, Min Sea Level PressureIn, Max VisibilityMiles, Mean VisibilityMiles, Min VisibilityMiles, Max Wind SpeedMPH, Mean Wind SpeedMPH, Max Gust SpeedMPH,PrecipitationIn, CloudCover, Events, WindDirDegrees
2013-3-1,42,32,21,33,27,18,84,74,64,30.38,30.28,30.18,10,9,2,16,9,18,0.01,6,Snow,243
2013-3-2,56,45,34,34,30,27,82,60,38,30.25,30.11,29.86,10,10,10,18,9,22,0.00,0,,250
2013-3-3,56,42,28,33,29,23,92,62,32,29.82,29.69,29.50,10,9,4,41,6,54,T,4,Snow-Thunderstorm,275
2013-3-4,28,21,14,22,13,9,80,70,60,30.44,30.06,29.79,10,5,0,35,24,51,T,7,Fog-Snow,315
2013-3-5,36,20,3,20,11,2,96,68,40,30.47,30.32,30.12,10,10,10,24,9,31,0.00,0,,167
2013-3-6,58,39,19,25,20,12,73,51,28,30.10,29.86,29.69,10,10,10,26,15,33,0.00,0,,176
2013-3-7,50,38,25,28,23,18,84,57,29,30.09,29.93,29.71,10,10,10,22,7,26,0.00,0,,349
2013-3-8,48,35,22,29,25,20,92,71,49,30.07,29.94,29.83,10,10,10,22,7,29,0.00,1,,160
2013-3-9,41,31,21,29,24,15,100,69,37,30.22,29.99,29.81,10,10,10,35,16,41,0.00,7,,343
2013-3-10,48,32,16,22,17,12,92,58,23,30.30,30.15,29.94,10,10,10,17,8,22,0.00,1,,300
2013-3-11,45,35,24,32,25,19,89,66,43,30.24,30.02,29.93,10,9,1,32,18,39,0.01,6,Snow,320
2013-3-12,41,29,16,21,16,13,92,63,33,30.38,30.27,30.12,10,10,10,24,8,28,0.00,3,,254
2013-3-13,64,50,36,28,25,19,59,41,22,30.13,30.08,30.00,10,10,10,22,10,26,0.00,2,,249
2013-3-14,68,51,34,30,27,24,70,45,20,30.19,30.07,29.94,10,10,10,20,7,23,0.00,0,,228
2013-3-15,66,50,33,30,25,18,70,45,19,29.99,29.87,29.79,10,10,10,28,14,33,0.00,2,,329
2013-3-16,47,38,29,37,32,25,100,83,65,30.01,29.91,29.79,10,9,2,28,12,32,0.09,6,Rain,172
2013-3-17,53,37,20,31,26,17,100,69,38,29.86,29.60,29.32,10,7,0,40,22,51,0.01,7,Fog-Snow,297
2013-3-18,37,26,15,19,15,11,92,64,35,30.03,29.94,29.80,10,10,2,25,10,32,T,5,Snow,307
2013-3-19,31,22,12,25,19,10,92,73,53,30.43,30.22,30.01,10,7,1,20,9,24,0.02,5,Snow,343
2013-3-20,54,36,17,20,16,13,80,53,26,30.38,29.96,29.59,10,10,10,31,16,37,0.00,1,,160
2013-3-21,39,28,17,30,27,17,100,80,59,29.90,29.70,29.52,10,5,0,31,12,38,0.10,6,Fog-Snow,332
2013-3-22,30,22,14,25,19,12,96,80,63,30.17,29.92,29.80,10,6,0,22,10,25,0.02,7,Fog-Snow,345
2013-3-23,28,20,11,18,12,9,88,76,63,30.33,30.21,30.04,10,7,2,18,9,22,T,7,Snow,323
2013-3-24,20,11,1,13,10,-2,96,85,74,30.45,30.23,30.12,10,5,1,25,11,30,0.02,7,Snow,336
2013-3-25,37,19,0,17,10,-1,95,62,29,30.45,30.32,30.14,10,10,10,14,5,17,0.00,0,,202
2013-3-26,48,32,16,18,13,7,80,50,19,30.09,30.04,29.99,10,10,10,17,4,22,0.00,0,,178
2013-3-27,57,41,24,29,19,13,75,50,24,30.11,30.03,29.96,10,10,10,15,5,18,0.00,1,,179
2013-3-28,62,42,22,27,22,18,92,56,19,30.10,30.05,29.99,10,10,10,16,4,30,0.00,1,,228
2013-3-29,64,49,34,36,27,24,70,47,23,30.08,30.02,29.96,10,10,10,25,10,32,T,4,,290
2013-3-30,55,39,23,39,32,22,92,62,32,30.19,30.10,30.05,10,10,10,33,11,39,0.00,5,,301
2013-3-31,60,40,20,28,25,20,92,60,28,30.18,30.05,29.97,10,10,10,35,15,39,0.00,1,,319